createdAt,value
2022-12-24T00:00:57.761Z,97886.38
2022-12-24T00:04:00.847Z,97886.38
2022-12-24T00:07:04.004Z,97879.22
2022-12-24T00:10:08.901Z,97863.25
2022-12-24T00:13:14.131Z,97838.50
2022-12-24T00:16:17.258Z,97829.69
2022-12-24T00:19:20.030Z,97826.16
2022-12-24T00:22:22.986Z,97804.94
2022-12-24T00:25:25.654Z,97808.34
2022-12-24T00:28:28.688Z,97807.47
2022-12-24T00:31:31.444Z,97825.16
2022-12-24T00:34:34.432Z,97828.56
2022-12-24T00:37:37.175Z,97832.88
2022-12-24T00:40:39.983Z,97843.47
2022-12-24T00:43:42.676Z,97852.37
2022-12-24T00:46:45.668Z,97848.00
2022-12-24T00:49:48.290Z,97843.63
2022-12-24T00:52:51.469Z,97846.31
2022-12-24T00:55:53.985Z,97832.16
2022-12-24T00:58:56.957Z,97831.22
2022-12-24T01:02:00.070Z,97848.00
2022-12-24T01:05:12.714Z,97858.59
2022-12-24T01:08:15.414Z,97867.47
2022-12-24T01:11:19.027Z,97881.59
2022-12-24T01:14:22.246Z,97863.91
2022-12-24T01:17:25.134Z,97848.06
2022-12-24T01:20:31.703Z,97845.44
2022-12-24T01:23:34.804Z,97826.91
2022-12-24T01:26:37.294Z,97817.22
2022-12-24T01:29:40.205Z,97816.38
2022-12-24T01:32:43.168Z,97805.81
2022-12-24T01:35:46.029Z,97802.22
2022-12-24T01:38:48.749Z,97811.06
2022-12-24T01:42:10.767Z,97819.88
2022-12-24T01:45:52.513Z,97801.22
2022-12-24T01:49:02.653Z,97786.06
2022-12-24T01:52:07.803Z,97786.75
2022-12-24T01:55:14.621Z,97795.38
2022-12-24T01:58:18.134Z,97762.56
2022-12-24T02:01:21.473Z,97772.94
2022-12-24T02:04:51.563Z,97752.50
2022-12-24T02:07:54.244Z,97751.47
2022-12-24T02:10:58.123Z,97754.06
2022-12-24T02:14:01.396Z,97747.84
2022-12-24T02:17:33.187Z,97747.00
2022-12-24T02:21:03.769Z,97747.97
2022-12-24T02:24:28.701Z,97773.56
2022-12-24T02:27:55.598Z,97795.75
2022-12-24T02:31:02.831Z,97789.59
2022-12-24T02:34:20.092Z,97801.06
2022-12-24T02:37:37.181Z,97792.72
2022-12-24T02:40:54.344Z,97792.38
2022-12-24T02:43:57.623Z,97778.22
2022-12-24T02:47:01.172Z,97772.81
2022-12-24T02:50:07.302Z,97786.19
2022-12-24T02:53:15.298Z,97805.66
2022-12-24T02:56:30.322Z,97800.34
2022-12-24T02:59:57.852Z,97801.19
2022-12-24T03:03:16.812Z,97812.53
2022-12-24T03:06:55.228Z,97796.47
2022-12-24T03:10:03.925Z,97814.81
2022-12-24T03:13:16.902Z,97797.84
2022-12-24T03:16:23.756Z,97791.47
2022-12-24T03:19:27.585Z,97784.34
2022-12-24T03:22:32.818Z,97789.63
2022-12-24T03:25:38.383Z,97788.84
2022-12-24T03:28:41.401Z,97782.66
2022-12-24T03:31:52.059Z,97772.91
2022-12-24T03:34:55.202Z,97763.09
2022-12-24T03:37:57.913Z,97765.75
2022-12-24T03:41:06.457Z,97765.72
2022-12-24T03:44:09.013Z,97762.16
2022-12-24T03:47:11.922Z,97769.22
2022-12-24T03:50:14.619Z,97785.28
2022-12-24T03:53:17.553Z,97778.22
2022-12-24T03:56:20.786Z,97785.41
2022-12-24T03:59:23.632Z,97787.25
2022-12-24T04:02:26.463Z,97790.94
2022-12-24T04:05:29.369Z,97786.78
2022-12-24T04:08:32.307Z,97810.53
2022-12-24T04:11:35.651Z,97812.31
2022-12-24T04:14:38.221Z,97801.69
2022-12-24T04:17:41.211Z,97806.00
2022-12-24T04:20:46.765Z,97800.63
2022-12-24T04:23:50.257Z,97795.12
2022-12-24T04:26:52.864Z,97799.53
2022-12-24T04:29:55.744Z,97803.12
2022-12-24T04:32:58.232Z,97808.53
2022-12-24T04:36:02.404Z,97797.00
2022-12-24T04:39:05.001Z,97802.34
2022-12-24T04:42:08.511Z,97809.50
2022-12-24T04:45:11.266Z,97807.69
2022-12-24T04:48:14.209Z,97803.00
2022-12-24T04:51:17.548Z,97803.97
2022-12-24T04:54:21.010Z,97800.47
2022-12-24T04:57:23.631Z,97801.38
2022-12-24T05:00:27.293Z,97812.00
2022-12-24T05:03:30.264Z,97811.91
2022-12-24T05:06:33.610Z,97817.34
2022-12-24T05:09:36.222Z,97824.47
2022-12-24T05:12:39.742Z,97819.25
2022-12-24T05:15:42.382Z,97806.00
2022-12-24T05:18:45.532Z,97821.13
2022-12-24T05:22:08.366Z,97818.50
2022-12-24T05:25:29.621Z,97825.69
2022-12-24T05:28:32.162Z,97823.94
2022-12-24T05:31:36.160Z,97823.97
2022-12-24T05:34:38.792Z,97832.75
2022-12-24T05:37:41.883Z,97841.56
2022-12-24T05:40:51.012Z,97835.31
2022-12-24T05:43:54.248Z,97802.00
2022-12-24T05:46:56.813Z,97836.09
2022-12-24T05:49:59.757Z,97831.59
2022-12-24T05:53:02.446Z,97842.25
2022-12-24T05:56:13.856Z,97835.25
2022-12-24T05:59:16.826Z,97833.62
2022-12-24T06:02:19.719Z,97829.31
2022-12-24T06:05:23.339Z,97831.13
2022-12-24T06:08:26.622Z,97837.28
2022-12-24T06:11:30.384Z,97845.28
2022-12-24T06:14:33.208Z,97854.22
2022-12-24T06:17:36.182Z,97860.44
2022-12-24T06:20:42.642Z,97855.16
2022-12-24T06:23:46.499Z,97854.34
2022-12-24T06:26:49.194Z,97856.03
2022-12-24T06:29:52.461Z,97859.37
2022-12-24T06:32:55.172Z,97850.75
2022-12-24T06:35:58.336Z,97869.16
2022-12-24T06:39:01.143Z,97878.12
2022-12-24T06:42:04.673Z,97884.34
2022-12-24T06:45:08.740Z,97846.69
2022-12-24T06:48:11.961Z,97879.91
2022-12-24T06:51:15.747Z,97885.97
2022-12-24T06:54:18.760Z,97891.91
2022-12-24T06:57:21.635Z,97899.97
2022-12-24T07:00:25.011Z,97899.22
2022-12-24T07:03:27.847Z,97893.34
2022-12-24T07:06:31.246Z,97907.63
2022-12-24T07:09:33.868Z,97904.03
2022-12-24T07:12:36.897Z,97915.38
2022-12-24T07:15:40.187Z,97929.28
2022-12-24T07:18:43.713Z,97938.62
2022-12-24T07:21:47.717Z,97944.53
2022-12-24T07:24:50.879Z,97932.19
2022-12-24T07:27:53.593Z,97941.38
2022-12-24T07:30:57.792Z,97946.81
2022-12-24T07:34:00.836Z,97943.03
2022-12-24T07:37:03.966Z,97934.81
2022-12-24T07:40:09.827Z,97942.28
2022-12-24T07:43:13.035Z,97948.75
2022-12-24T07:46:15.758Z,97959.50
2022-12-24T07:49:18.909Z,97968.41
2022-12-24T07:52:21.728Z,97969.19
2022-12-24T07:55:24.714Z,97961.16
2022-12-24T07:58:27.814Z,97971.72
2022-12-24T08:01:30.843Z,97961.34
2022-12-24T08:04:36.390Z,97980.69
2022-12-24T08:07:39.203Z,97989.56
2022-12-24T08:10:44.758Z,97996.53
2022-12-24T08:13:47.490Z,98005.22
2022-12-24T08:16:50.464Z,98016.53
2022-12-24T08:19:53.131Z,98017.16
2022-12-24T08:22:56.032Z,98016.03
2022-12-24T08:25:58.675Z,98023.50
2022-12-24T08:29:02.159Z,98027.50
2022-12-24T08:32:05.141Z,98043.19
2022-12-24T08:35:08.368Z,98046.56
2022-12-24T08:38:10.925Z,98058.13
2022-12-24T08:41:14.171Z,98061.75
2022-12-24T08:44:16.716Z,98070.75
2022-12-24T08:47:19.776Z,98066.38
2022-12-24T08:50:24.078Z,98071.72
2022-12-24T08:53:26.981Z,98073.53
2022-12-24T08:56:29.696Z,98077.91
2022-12-24T08:59:32.587Z,98091.06
2022-12-24T09:02:35.823Z,98092.88
2022-12-24T09:05:40.372Z,98091.06
2022-12-24T09:08:43.109Z,98091.09
2022-12-24T09:11:45.961Z,98096.53
2022-12-24T09:14:51.013Z,98092.88
2022-12-24T09:17:54.066Z,98095.34
2022-12-24T09:21:01.561Z,98093.28
2022-12-24T09:24:04.997Z,98112.56
2022-12-24T09:27:07.837Z,98100.25
2022-12-24T09:30:11.457Z,98121.28
2022-12-24T09:33:15.157Z,98131.63
2022-12-24T09:36:38.028Z,98134.09
2022-12-24T09:39:40.537Z,98131.25
2022-12-24T09:42:49.046Z,98138.38
2022-12-24T09:46:01.229Z,98141.94
2022-12-24T09:49:16.061Z,98141.03
2022-12-24T09:52:40.194Z,98113.78
2022-12-24T09:55:49.200Z,98141.63
2022-12-24T09:59:00.104Z,98142.16
2022-12-24T10:02:03.253Z,98141.47
2022-12-24T10:05:13.015Z,98145.88
2022-12-24T10:08:31.728Z,98144.19
2022-12-24T10:11:53.685Z,98147.78
2022-12-24T10:15:08.383Z,98153.19
2022-12-24T10:18:21.469Z,98150.53
2022-12-24T10:21:33.689Z,98144.34
2022-12-24T10:24:51.028Z,98157.50
2022-12-24T10:27:56.016Z,98162.81
2022-12-24T10:31:02.956Z,98163.66
2022-12-24T10:34:12.665Z,98153.00
2022-12-24T10:37:20.410Z,98162.69
2022-12-24T10:40:35.132Z,98154.38
2022-12-24T10:43:40.145Z,98149.19
2022-12-24T10:46:43.102Z,98156.09
2022-12-24T10:49:48.558Z,98154.25
2022-12-24T10:52:53.695Z,98160.41
2022-12-24T10:56:11.747Z,98155.03
2022-12-24T10:59:31.686Z,98159.34
2022-12-24T11:02:37.008Z,98146.06
2022-12-24T11:05:40.342Z,98155.50
2022-12-24T11:08:47.439Z,98160.66
2022-12-24T11:11:50.227Z,98170.34
2022-12-24T11:15:15.002Z,98165.84
2022-12-24T11:18:17.667Z,98171.87
2022-12-24T11:21:26.964Z,98175.12
2022-12-24T11:24:35.026Z,98176.25
2022-12-24T11:27:49.632Z,98188.28
2022-12-24T11:31:19.731Z,98187.16
2022-12-24T11:34:30.656Z,98201.00
2022-12-24T11:37:33.191Z,98197.50
2022-12-24T11:40:39.338Z,98194.59
2022-12-24T11:43:50.557Z,98195.41
2022-12-24T11:46:57.183Z,98207.81
2022-12-24T11:50:19.778Z,98210.81
2022-12-24T11:53:28.456Z,98181.63
2022-12-24T11:56:41.851Z,98200.84
2022-12-24T11:59:47.339Z,98201.50
2022-12-24T12:02:51.402Z,98223.53
2022-12-24T12:05:55.647Z,98221.19
2022-12-24T12:09:03.611Z,98224.06
2022-12-24T12:12:15.845Z,98221.59
2022-12-24T12:16:00.417Z,98236.75
2022-12-24T12:19:08.658Z,98236.94
2022-12-24T12:22:28.506Z,98234.22
2022-12-24T12:25:41.865Z,98242.91
2022-12-24T12:28:49.707Z,98246.47
2022-12-24T12:32:00.279Z,98244.66
2022-12-24T12:35:17.145Z,98259.28
2022-12-24T12:38:25.643Z,98253.44
2022-12-24T12:41:34.457Z,98260.72
2022-12-24T12:44:52.513Z,98262.03
2022-12-24T12:48:21.301Z,98262.47
2022-12-24T12:51:30.433Z,98272.19
2022-12-24T12:54:33.243Z,98278.84
2022-12-24T12:57:37.772Z,98286.94
2022-12-24T13:00:42.473Z,98270.50
2022-12-24T13:03:48.180Z,98278.50
2022-12-24T13:07:18.953Z,98275.28
2022-12-24T13:10:45.655Z,98270.44
2022-12-24T13:14:11.174Z,98278.91
2022-12-24T13:17:32.521Z,98274.75
2022-12-24T13:20:40.344Z,98281.66
2022-12-24T13:23:43.236Z,98289.19
2022-12-24T13:27:06.202Z,98287.47
2022-12-24T13:30:32.244Z,98291.78
2022-12-24T13:33:37.508Z,98285.56
2022-12-24T13:37:03.975Z,98299.13
2022-12-24T13:40:06.790Z,98305.56
2022-12-24T13:43:12.353Z,98305.94
2022-12-24T13:47:01.029Z,98306.09
2022-12-24T13:50:22.038Z,98315.25
2022-12-24T13:53:32.140Z,98324.31
2022-12-24T13:56:36.742Z,98328.12
2022-12-24T13:59:39.720Z,98345.53
2022-12-24T14:03:08.088Z,98351.62
2022-12-24T14:06:23.103Z,98341.88
2022-12-24T14:09:26.051Z,98348.16
2022-12-24T14:12:34.213Z,98366.19
2022-12-24T14:16:00.692Z,98373.47
2022-12-24T14:19:16.061Z,98375.25
2022-12-24T14:22:42.082Z,98391.56
2022-12-24T14:25:48.472Z,98404.16
2022-12-24T14:28:55.866Z,98390.03
2022-12-24T14:32:00.534Z,98397.47
2022-12-24T14:35:25.949Z,98390.41
2022-12-24T14:38:29.685Z,98397.78
2022-12-24T14:41:40.045Z,98410.25
2022-12-24T14:44:59.791Z,98416.63
2022-12-24T14:48:11.503Z,98422.00
2022-12-24T14:51:39.335Z,98439.94
2022-12-24T14:54:42.999Z,98433.75
2022-12-24T14:57:45.788Z,98457.53
2022-12-24T15:00:48.769Z,98449.62
2022-12-24T15:04:09.915Z,98455.97
2022-12-24T15:07:12.666Z,98450.66
2022-12-24T15:10:28.541Z,98456.06
2022-12-24T15:13:37.951Z,98454.50
2022-12-24T15:16:40.970Z,98459.09
2022-12-24T15:19:45.207Z,98461.91
2022-12-24T15:22:51.378Z,98455.88
2022-12-24T15:26:14.163Z,98448.91
2022-12-24T15:29:28.807Z,98428.81
2022-12-24T15:32:31.535Z,98457.84
2022-12-24T15:35:48.594Z,98463.72
2022-12-24T15:38:52.516Z,98453.84
2022-12-24T15:42:13.515Z,98450.50
2022-12-24T15:45:26.654Z,98447.16
2022-12-24T15:48:31.595Z,98460.66
2022-12-24T15:51:39.365Z,98459.22
2022-12-24T15:54:45.216Z,98478.75
2022-12-24T15:57:48.013Z,98471.72
2022-12-24T16:01:09.573Z,98478.19
2022-12-24T16:04:19.352Z,98479.22
2022-12-24T16:07:26.545Z,98483.06
2022-12-24T16:10:30.005Z,98480.56
2022-12-24T16:13:38.323Z,98481.72
2022-12-24T16:16:48.433Z,98481.09
2022-12-24T16:19:53.840Z,98476.00
2022-12-24T16:22:56.691Z,98470.00
2022-12-24T16:25:59.431Z,98481.25
2022-12-24T16:29:02.548Z,98486.78
2022-12-24T16:32:05.266Z,98480.78
2022-12-24T16:35:26.428Z,98488.84
2022-12-24T16:38:49.206Z,98495.09
2022-12-24T16:42:14.496Z,98499.75
2022-12-24T16:45:17.518Z,98499.84
2022-12-24T16:48:24.199Z,98515.88
2022-12-24T16:51:26.806Z,98518.62
2022-12-24T16:54:30.120Z,98506.28
2022-12-24T16:57:34.123Z,98514.22
2022-12-24T17:00:37.391Z,98510.72
2022-12-24T17:03:40.037Z,98522.47
2022-12-24T17:06:42.995Z,98520.78
2022-12-24T17:09:46.158Z,98524.31
2022-12-24T17:12:49.100Z,98523.22
2022-12-24T17:15:51.858Z,98518.66
2022-12-24T17:18:54.703Z,98512.41
2022-12-24T17:21:57.244Z,98524.69
2022-12-24T17:25:00.200Z,98524.69
2022-12-24T17:28:02.812Z,98522.94
2022-12-24T17:31:14.020Z,98525.62
2022-12-24T17:34:16.569Z,98533.72
2022-12-24T17:37:19.549Z,98533.81
2022-12-24T17:40:22.225Z,98540.22
2022-12-24T17:43:25.385Z,98548.41
2022-12-24T17:46:27.936Z,98560.09
2022-12-24T17:49:31.772Z,98554.91
2022-12-24T17:52:34.979Z,98569.25
2022-12-24T17:55:42.109Z,98572.00
2022-12-24T17:58:46.312Z,98586.38
2022-12-24T18:01:49.276Z,98578.44
2022-12-24T18:04:52.255Z,98591.87
2022-12-24T18:07:54.807Z,98589.22
2022-12-24T18:10:57.929Z,98597.19
2022-12-24T18:14:02.161Z,98598.94
2022-12-24T18:17:05.220Z,98598.91
2022-12-24T18:20:09.127Z,98584.88
2022-12-24T18:23:12.286Z,98607.94
2022-12-24T18:26:15.523Z,98597.38
2022-12-24T18:29:19.797Z,98607.22
2022-12-24T18:32:22.413Z,98609.94
2022-12-24T18:35:25.252Z,98608.06
2022-12-24T18:38:28.021Z,98608.88
2022-12-24T18:41:31.121Z,98605.38
2022-12-24T18:44:33.617Z,98614.16
2022-12-24T18:47:36.579Z,98608.41
2022-12-24T18:50:40.564Z,98605.06
2022-12-24T18:53:43.821Z,98612.38
2022-12-24T18:56:46.436Z,98596.69
2022-12-24T18:59:49.685Z,98607.38
2022-12-24T19:02:52.283Z,98607.50
2022-12-24T19:06:01.808Z,98621.87
2022-12-24T19:09:04.455Z,98630.88
2022-12-24T19:12:07.546Z,98631.91
2022-12-24T19:15:10.584Z,98626.53
2022-12-24T19:18:13.887Z,98631.84
2022-12-24T19:21:17.712Z,98642.56
2022-12-24T19:24:20.690Z,98639.00
2022-12-24T19:27:23.193Z,98651.41
2022-12-24T19:30:26.013Z,98665.50
2022-12-24T19:33:28.812Z,98658.25
2022-12-24T19:36:31.627Z,98661.63
2022-12-24T19:39:34.838Z,98664.97
2022-12-24T19:42:37.651Z,98670.13
2022-12-24T19:45:40.209Z,98673.56
2022-12-24T19:48:43.969Z,98679.72
2022-12-24T19:51:46.526Z,98679.72
2022-12-24T19:54:49.302Z,98676.09
2022-12-24T19:57:52.540Z,98676.03
2022-12-24T20:00:55.733Z,98680.44
2022-12-24T20:03:59.064Z,98683.97
2022-12-24T20:07:01.619Z,98693.72
2022-12-24T20:10:04.701Z,98688.38
2022-12-24T20:13:07.833Z,98696.25
2022-12-24T20:16:15.782Z,98688.25
2022-12-24T20:19:18.283Z,98700.53
2022-12-24T20:22:21.514Z,98697.78
2022-12-24T20:25:25.019Z,98698.66
2022-12-24T20:28:29.001Z,98692.44
2022-12-24T20:31:32.139Z,98693.34
2022-12-24T20:34:34.995Z,98705.91
2022-12-24T20:37:45.662Z,98711.28
2022-12-24T20:40:49.373Z,98714.81
2022-12-24T20:43:52.147Z,98717.50
2022-12-24T20:46:54.911Z,98705.03
2022-12-24T20:49:57.510Z,98696.25
2022-12-24T20:53:00.469Z,98685.50
2022-12-24T20:56:02.965Z,98701.22
2022-12-24T20:59:06.168Z,98698.66
2022-12-24T21:02:12.454Z,98701.91
2022-12-24T21:05:15.610Z,98697.41
2022-12-24T21:08:18.267Z,98687.22
2022-12-24T21:11:40.614Z,98705.19
2022-12-24T21:14:43.114Z,98683.88
2022-12-24T21:17:46.713Z,98707.69
2022-12-24T21:20:49.793Z,98711.25
2022-12-24T21:23:52.731Z,98720.37
2022-12-24T21:26:55.393Z,98723.16
2022-12-24T21:29:58.488Z,98719.53
2022-12-24T21:33:01.164Z,98728.59
2022-12-24T21:36:04.550Z,98728.69
2022-12-24T21:39:07.070Z,98729.63
2022-12-24T21:42:09.939Z,98745.72
2022-12-24T21:45:12.584Z,98741.31
2022-12-24T21:48:34.410Z,98738.81
2022-12-24T21:51:37.256Z,98749.59
2022-12-24T21:54:40.100Z,98751.50
2022-12-24T21:57:54.734Z,98754.22
2022-12-24T22:00:57.747Z,98761.41
2022-12-24T22:04:00.827Z,98759.59
2022-12-24T22:07:22.540Z,98773.78
2022-12-24T22:10:49.652Z,98774.72
2022-12-24T22:13:52.140Z,98768.50
2022-12-24T22:16:55.125Z,98764.94
2022-12-24T22:19:57.893Z,98757.00
2022-12-24T22:23:00.822Z,98756.16
2022-12-24T22:26:11.419Z,98767.66
2022-12-24T22:29:14.785Z,98773.78
2022-12-24T22:32:17.442Z,98759.56
2022-12-24T22:35:20.332Z,98774.69
2022-12-24T22:38:22.928Z,98777.41
2022-12-24T22:41:25.715Z,98775.81
2022-12-24T22:44:28.817Z,98776.78
2022-12-24T22:47:31.734Z,98777.84
2022-12-24T22:50:34.343Z,98782.34
2022-12-24T22:53:37.503Z,98786.91
2022-12-24T22:56:41.522Z,98787.00
2022-12-24T22:59:44.844Z,98790.63
2022-12-24T23:02:47.863Z,98788.94
2022-12-24T23:06:02.345Z,98783.72
2022-12-24T23:09:06.694Z,98790.84
2022-12-24T23:12:09.711Z,98785.59
2022-12-24T23:15:12.380Z,98782.97
2022-12-24T23:18:15.521Z,98792.75
2022-12-24T23:21:18.672Z,98799.00
2022-12-24T23:24:21.536Z,98796.25
2022-12-24T23:27:24.127Z,98788.28
2022-12-24T23:30:26.938Z,98788.28
2022-12-24T23:33:29.924Z,98782.84
2022-12-24T23:36:32.985Z,98797.88
2022-12-24T23:39:35.599Z,98799.50
2022-12-24T23:42:38.403Z,98796.00
2022-12-24T23:45:47.513Z,98792.53
2022-12-24T23:48:54.092Z,98786.34
2022-12-24T23:51:56.775Z,98778.31
2022-12-24T23:54:59.631Z,98774.78
2022-12-24T23:58:02.531Z,98790.75
